Time;durP1;ratioP1;P1;durP2;ratioP2;P2;SDS_P1;SDS_P2;PMS_P1;PMS_P2;Temp;Humidity;BMP_temperature;BMP_pressure;BME280_temperature;BME280_humidity;BME280_pressure;Samples;Min_cycle;Max_cycle;Signal;HPM_P1;HPM_P2
2022/12/05 00:00:54;;;;;;;50.07;40.50;;;2.90;99.90;;;;;;5053960;28;20498;-68
2022/12/05 00:03:21;;;;;;;53.37;39.87;;;2.90;99.90;;;;;;5062115;28;20638;-68
2022/12/05 00:05:50;;;;;;;47.40;40.23;;;2.80;99.90;;;;;;5054646;28;20518;-68
2022/12/05 00:08:17;;;;;;;46.20;38.23;;;3.00;99.90;;;;;;5058141;28;20676;-68
2022/12/05 00:10:44;;;;;;;46.33;38.70;;;3.00;99.90;;;;;;5055726;28;20467;-68
2022/12/05 00:13:11;;;;;;;51.20;40.60;;;2.90;99.90;;;;;;5060407;28;20470;-68
2022/12/05 00:15:39;;;;;;;50.77;40.00;;;2.80;99.90;;;;;;5056805;28;20470;-68
2022/12/05 00:18:07;;;;;;;44.30;38.73;;;2.90;99.90;;;;;;5058253;28;20585;-68
2022/12/05 00:20:34;;;;;;;45.37;39.67;;;2.90;99.90;;;;;;5060404;28;20458;-69
2022/12/05 00:23:02;;;;;;;46.30;38.47;;;3.00;99.90;;;;;;5060801;28;20455;-68
2022/12/05 00:25:29;;;;;;;48.33;40.80;;;3.10;99.90;;;;;;5055656;28;20599;-68
2022/12/05 00:27:56;;;;;;;45.40;38.67;;;3.00;99.90;;;;;;5060184;28;20829;-69
2022/12/05 00:30:23;;;;;;;48.77;40.77;;;3.10;99.90;;;;;;5062268;28;20525;-68
2022/12/05 00:32:50;;;;;;;46.67;38.10;;;3.20;99.90;;;;;;5057698;28;20462;-68
2022/12/05 00:35:17;;;;;;;42.33;37.57;;;3.20;99.90;;;;;;5056809;28;20459;-68
2022/12/05 00:37:44;;;;;;;51.37;41.00;;;3.10;99.90;;;;;;5060180;28;20711;-68
2022/12/05 00:40:12;;;;;;;41.90;37.50;;;3.20;99.90;;;;;;5060234;28;20486;-68
2022/12/05 00:42:39;;;;;;;49.77;38.57;;;3.10;99.90;;;;;;5054460;28;20506;-68
2022/12/05 00:45:06;;;;;;;49.27;38.90;;;3.20;99.90;;;;;;5053493;28;20474;-68
2022/12/05 00:47:35;;;;;;;48.63;39.77;;;3.10;99.90;;;;;;5063467;28;20463;-68
2022/12/05 00:50:02;;;;;;;49.10;38.33;;;3.10;99.90;;;;;;5063949;28;20491;-68
2022/12/05 00:52:29;;;;;;;45.63;38.00;;;3.20;99.90;;;;;;5051322;28;20462;-69
2022/12/05 00:54:56;;;;;;;50.40;38.40;;;3.20;99.90;;;;;;5054486;28;21002;-68
2022/12/05 00:57:24;;;;;;;52.07;41.33;;;3.10;99.90;;;;;;5055120;28;20900;-68
2022/12/05 00:59:51;;;;;;;46.80;39.83;;;3.10;99.90;;;;;;5061593;28;20847;-69
2022/12/05 01:02:17;;;;;;;45.13;38.20;;;3.10;99.90;;;;;;5058454;28;20466;-68
2022/12/05 01:04:44;;;;;;;46.13;38.27;;;3.00;99.90;;;;;;5060255;28;20482;-68
2022/12/05 01:07:11;;;;;;;49.17;37.37;;;3.00;99.90;;;;;;5054899;28;20908;-68
2022/12/05 01:09:38;;;;;;;46.53;37.73;;;3.00;99.90;;;;;;5058386;28;20474;-68
2022/12/05 01:12:05;;;;;;;46.53;38.30;;;2.90;99.90;;;;;;5057385;28;20477;-68
2022/12/05 01:14:34;;;;;;;46.60;39.97;;;3.00;99.90;;;;;;5064911;28;20474;-68
2022/12/05 01:17:02;;;;;;;50.43;38.90;;;2.90;99.90;;;;;;5055715;28;20558;-68
2022/12/05 01:19:31;;;;;;;44.57;38.73;;;3.00;99.90;;;;;;5054694;28;20494;-68
2022/12/05 01:21:58;;;;;;;43.73;38.93;;;3.00;99.90;;;;;;5053943;28;20542;-68
2022/12/05 01:24:26;;;;;;;45.50;37.97;;;3.00;99.90;;;;;;5059526;28;20463;-68
2022/12/05 01:26:54;;;;;;;43.03;38.27;;;3.20;99.90;;;;;;5047498;28;21351;-68
2022/12/05 01:29:22;;;;;;;48.73;38.93;;;3.20;99.90;;;;;;5059246;28;20469;-68
2022/12/05 01:31:51;;;;;;;46.27;37.03;;;3.10;99.90;;;;;;5061398;28;20474;-68
2022/12/05 01:34:19;;;;;;;49.13;39.80;;;3.10;99.90;;;;;;5060125;28;20470;-68
2022/12/05 01:36:46;;;;;;;55.77;38.30;;;3.00;99.90;;;;;;5058745;28;20891;-68
2022/12/05 01:39:14;;;;;;;47.50;37.30;;;3.00;99.90;;;;;;5052956;28;20709;-70
2022/12/05 01:41:43;;;;;;;45.63;36.67;;;3.00;99.90;;;;;;5051800;28;20463;-68
2022/12/05 01:44:43;;;;;;;47.47;40.20;;;2.90;99.90;;;;;;5058698;28;20804;-68
2022/12/05 01:47:15;;;;;;;48.13;36.90;;;2.90;99.90;;;;;;5060616;28;20485;-68
2022/12/05 01:49:43;;;;;;;45.30;35.77;;;2.90;99.90;;;;;;5050187;28;20468;-68
2022/12/05 01:52:15;;;;;;;47.10;37.27;;;2.90;99.90;;;;;;5052217;28;20471;-68
2022/12/05 01:54:43;;;;;;;48.93;37.40;;;2.80;99.90;;;;;;5056451;28;20460;-68
2022/12/05 01:57:12;;;;;;;45.93;36.53;;;2.80;99.90;;;;;;5056879;28;20907;-68
2022/12/05 01:59:42;;;;;;;44.93;36.07;;;2.90;99.90;;;;;;5054350;28;20495;-68
2022/12/05 02:02:11;;;;;;;44.57;37.07;;;2.90;99.90;;;;;;5057188;28;20463;-68
2022/12/05 02:04:45;;;;;;;45.20;35.37;;;2.70;99.90;;;;;;5056397;28;20486;-69
2022/12/05 02:07:12;;;;;;;45.00;34.90;;;2.80;99.90;;;;;;5056083;28;20472;-68
2022/12/05 02:09:39;;;;;;;46.03;37.10;;;2.90;99.90;;;;;;5055131;28;20463;-68
2022/12/05 02:12:06;;;;;;;48.60;36.07;;;2.90;99.90;;;;;;5053862;28;20471;-68
2022/12/05 02:14:43;;;;;;;57.83;35.17;;;2.90;99.90;;;;;;5059476;28;20464;-68
2022/12/05 02:17:21;;;;;;;49.80;35.53;;;3.00;99.90;;;;;;5056747;28;20902;-71
2022/12/05 02:19:58;;;;;;;44.27;33.30;;;3.00;99.90;;;;;;5060474;28;20497;-68
2022/12/05 02:22:45;;;;;;;44.83;35.17;;;3.00;99.90;;;;;;5054587;28;20913;-68
2022/12/05 02:25:26;;;;;;;40.40;31.43;;;3.00;99.90;;;;;;5055116;28;20471;-68
2022/12/05 02:28:12;;;;;;;44.23;34.47;;;2.80;99.90;;;;;;5052849;28;20478;-69
2022/12/05 02:30:43;;;;;;;41.67;33.37;;;3.00;99.90;;;;;;5045470;28;20464;-68
2022/12/05 02:33:20;;;;;;;51.47;35.17;;;3.00;99.90;;;;;;5055915;28;20471;-68
2022/12/05 02:35:54;;;;;;;44.73;35.37;;;3.00;99.90;;;;;;5047696;28;20467;-68
2022/12/05 02:38:28;;;;;;;48.60;35.30;;;3.00;99.90;;;;;;5051261;28;20578;-69
2022/12/05 02:41:06;;;;;;;40.30;35.80;;;3.00;99.90;;;;;;5058202;28;20561;-68
2022/12/05 02:43:40;;;;;;;44.70;35.67;;;3.10;99.90;;;;;;5052542;28;20472;-67
2022/12/05 02:46:12;;;;;;;44.67;34.60;;;3.10;99.90;;;;;;5052723;28;20463;-68
2022/12/05 02:48:41;;;;;;;45.60;34.43;;;3.00;99.90;;;;;;5050572;28;20475;-68
2022/12/05 02:51:09;;;;;;;50.27;37.10;;;3.10;99.90;;;;;;5049900;28;20606;-68
2022/12/05 02:53:38;;;;;;;49.63;38.07;;;3.10;99.90;;;;;;5060431;28;20460;-68
2022/12/05 02:56:06;;;;;;;47.33;36.97;;;3.20;99.90;;;;;;5057975;28;20474;-70
2022/12/05 02:58:37;;;;;;;46.20;40.03;;;3.20;99.90;;;;;;5057962;28;20536;-68
2022/12/05 03:01:04;;;;;;;45.27;40.30;;;3.20;99.90;;;;;;5050758;28;20467;-68
2022/12/05 03:03:34;;;;;;;50.10;39.60;;;3.10;99.90;;;;;;5052392;28;20471;-67
2022/12/05 03:06:07;;;;;;;49.90;41.10;;;3.20;99.90;;;;;;5057356;28;20490;-67
2022/12/05 03:08:40;;;;;;;47.43;40.73;;;3.10;99.90;;;;;;5062882;28;20458;-68
2022/12/05 03:11:08;;;;;;;50.57;41.97;;;3.00;99.90;;;;;;5062208;28;20847;-68
2022/12/05 03:13:40;;;;;;;50.87;42.43;;;3.00;99.90;;;;;;5061418;28;20470;-68
2022/12/05 03:16:13;;;;;;;49.03;40.30;;;3.10;99.90;;;;;;5057210;28;20495;-68
2022/12/05 03:18:48;;;;;;;53.23;42.40;;;3.00;99.90;;;;;;5063476;28;20506;-68
2022/12/05 03:21:25;;;;;;;56.90;42.67;;;3.10;99.90;;;;;;5063447;28;20471;-69
2022/12/05 03:23:55;;;;;;;45.13;40.00;;;3.00;99.90;;;;;;5062570;28;20454;-68
2022/12/05 03:26:35;;;;;;;49.63;40.97;;;3.10;99.90;;;;;;5061708;28;20815;-68
2022/12/05 03:29:12;;;;;;;47.93;42.37;;;3.10;99.90;;;;;;5060682;28;20458;-68
2022/12/05 03:31:44;;;;;;;52.27;41.33;;;3.20;99.90;;;;;;5056291;28;20478;-68
2022/12/05 03:34:17;;;;;;;55.23;41.63;;;3.20;99.90;;;;;;5058402;28;20495;-68
2022/12/05 03:36:49;;;;;;;50.23;41.80;;;3.20;99.90;;;;;;5061421;28;20459;-68
2022/12/05 03:39:22;;;;;;;55.60;43.43;;;3.20;99.90;;;;;;5059404;28;20490;-68
2022/12/05 03:41:59;;;;;;;48.30;41.53;;;3.20;99.90;;;;;;5058482;28;20463;-68
2022/12/05 03:44:34;;;;;;;53.70;43.27;;;3.30;99.90;;;;;;5059405;28;20470;-68
2022/12/05 03:47:05;;;;;;;50.33;42.70;;;3.10;99.90;;;;;;5059919;28;20469;-68
2022/12/05 03:49:38;;;;;;;48.50;42.13;;;3.10;99.90;;;;;;5056786;28;20945;-69
2022/12/05 03:52:10;;;;;;;55.90;43.07;;;3.10;99.90;;;;;;5060437;28;20473;-68
2022/12/05 03:54:42;;;;;;;53.60;44.10;;;3.20;99.90;;;;;;5059231;28;20463;-68
2022/12/05 03:57:13;;;;;;;52.80;45.53;;;3.10;99.90;;;;;;5062125;28;20555;-69
2022/12/05 03:59:45;;;;;;;54.50;46.13;;;3.00;99.90;;;;;;5070958;28;20551;-69
2022/12/05 04:02:15;;;;;;;62.33;45.70;;;3.00;99.90;;;;;;5052626;28;20454;-69
2022/12/05 04:04:48;;;;;;;51.43;44.80;;;2.90;99.90;;;;;;5061853;28;20495;-69
2022/12/05 04:07:18;;;;;;;54.27;44.33;;;2.80;99.90;;;;;;5059330;28;20517;-69
2022/12/05 04:09:50;;;;;;;55.27;45.30;;;2.90;99.90;;;;;;5060296;28;20494;-69
2022/12/05 04:12:22;;;;;;;49.50;42.40;;;2.90;99.90;;;;;;5065486;28;20458;-69
2022/12/05 04:14:52;;;;;;;54.30;44.73;;;2.80;99.90;;;;;;5061111;28;20550;-70
2022/12/05 04:17:24;;;;;;;51.23;41.60;;;2.80;99.90;;;;;;5056568;28;20465;-69
2022/12/05 04:22:43;;;;;;;54.40;43.23;;;2.80;99.90;;;;;;5058353;28;20462;-69
2022/12/05 04:28:05;;;;;;;48.60;41.20;;;2.80;99.90;;;;;;5060052;28;20594;-69
2022/12/05 04:30:37;;;;;;;49.20;42.70;;;2.70;99.90;;;;;;5060392;28;20566;-69
2022/12/05 04:33:10;;;;;;;49.60;40.57;;;2.70;99.90;;;;;;5059443;28;20462;-70
2022/12/05 04:35:44;;;;;;;45.43;40.37;;;2.80;99.90;;;;;;5057059;28;20486;-71
2022/12/05 04:38:15;;;;;;;47.07;40.73;;;2.80;99.90;;;;;;5056605;28;20455;-69
2022/12/05 04:40:48;;;;;;;54.67;40.30;;;2.80;99.90;;;;;;5057133;28;20462;-69
2022/12/05 04:43:17;;;;;;;51.20;40.97;;;2.80;99.90;;;;;;5055253;28;20900;-69
2022/12/05 04:45:45;;;;;;;51.77;41.20;;;2.80;99.90;;;;;;5051899;28;20467;-69
2022/12/05 04:48:15;;;;;;;48.07;40.10;;;2.90;99.90;;;;;;5058793;28;20472;-69
2022/12/05 04:50:47;;;;;;;45.63;39.50;;;2.80;99.90;;;;;;5048620;28;20491;-69
2022/12/05 04:53:15;;;;;;;50.73;40.90;;;2.70;99.90;;;;;;5059458;28;20474;-70
2022/12/05 04:55:46;;;;;;;51.77;41.83;;;2.50;99.90;;;;;;5056681;28;20467;-70
2022/12/05 04:58:17;;;;;;;53.40;44.00;;;2.60;99.90;;;;;;5058550;28;20458;-69
2022/12/05 05:00:50;;;;;;;46.80;40.07;;;2.40;99.90;;;;;;5059135;28;20983;-71
2022/12/05 05:03:20;;;;;;;56.33;42.20;;;2.20;99.90;;;;;;5053020;28;20467;-71
2022/12/05 05:05:51;;;;;;;47.37;40.50;;;2.20;99.90;;;;;;5056289;28;20495;-69
2022/12/05 05:08:19;;;;;;;45.97;39.00;;;2.20;99.90;;;;;;5063265;28;20459;-71
2022/12/05 05:10:55;;;;;;;51.80;39.30;;;2.20;99.90;;;;;;5057663;28;20473;-71
2022/12/05 05:13:23;;;;;;;45.77;40.57;;;2.20;99.90;;;;;;5057956;28;20488;-68
2022/12/05 05:15:50;;;;;;;50.37;39.00;;;2.20;99.90;;;;;;5053683;28;20466;-71
2022/12/05 05:18:19;;;;;;;48.90;40.37;;;2.20;99.90;;;;;;5058569;28;20550;-70
2022/12/05 05:20:45;;;;;;;53.10;40.20;;;2.30;99.90;;;;;;5056710;28;20472;-70
2022/12/05 05:23:14;;;;;;;49.63;38.57;;;2.20;99.90;;;;;;5058888;28;20469;-69
2022/12/05 05:25:41;;;;;;;61.50;39.67;;;2.20;99.90;;;;;;5057753;28;20464;-69
2022/12/05 05:28:08;;;;;;;50.30;39.00;;;2.30;99.90;;;;;;5054860;28;20463;-70
2022/12/05 05:30:35;;;;;;;43.10;37.77;;;2.30;99.90;;;;;;5050871;28;20459;-71
2022/12/05 05:33:02;;;;;;;50.03;39.60;;;2.30;99.90;;;;;;5060042;28;21116;-71
2022/12/05 05:35:29;;;;;;;58.10;41.50;;;2.40;99.90;;;;;;5056474;28;20477;-70
2022/12/05 05:37:57;;;;;;;47.10;38.83;;;2.30;99.90;;;;;;5053355;28;20467;-70
2022/12/05 05:40:25;;;;;;;46.70;39.10;;;2.20;99.90;;;;;;5053065;28;20501;-70
2022/12/05 05:42:52;;;;;;;43.33;37.13;;;2.10;99.90;;;;;;5058974;28;20478;-70
2022/12/05 05:45:19;;;;;;;45.73;37.67;;;2.10;99.90;;;;;;5053584;28;20463;-70
2022/12/05 05:47:48;;;;;;;51.50;37.60;;;2.10;99.90;;;;;;5055579;28;21026;-69
2022/12/05 05:50:15;;;;;;;46.00;37.40;;;2.00;99.90;;;;;;5055751;28;20892;-69
2022/12/05 05:52:41;;;;;;;43.93;36.80;;;2.00;99.90;;;;;;5055509;28;20892;-69
2022/12/05 05:55:10;;;;;;;43.57;38.87;;;1.90;99.90;;;;;;5054843;28;20462;-70
2022/12/05 05:57:38;;;;;;;53.87;39.90;;;1.80;99.90;;;;;;5060510;28;20486;-70
2022/12/05 06:00:06;;;;;;;47.10;38.27;;;1.80;99.90;;;;;;5054110;28;21019;-68
2022/12/05 06:02:33;;;;;;;43.63;38.27;;;1.80;99.90;;;;;;5059421;28;20467;-70
2022/12/05 06:05:01;;;;;;;54.53;40.10;;;1.80;99.90;;;;;;5055686;28;20496;-69
2022/12/05 06:07:29;;;;;;;50.10;40.00;;;1.80;99.90;;;;;;5053981;28;21056;-69
2022/12/05 06:09:56;;;;;;;45.57;38.10;;;1.80;99.90;;;;;;5056724;28;20545;-69
2022/12/05 06:12:23;;;;;;;41.77;37.33;;;1.80;99.90;;;;;;5058131;28;20454;-68
2022/12/05 06:14:52;;;;;;;50.23;37.93;;;1.70;99.90;;;;;;5058383;28;20468;-72
2022/12/05 06:17:19;;;;;;;54.13;40.10;;;1.70;99.90;;;;;;5052632;28;20499;-68
2022/12/05 06:19:46;;;;;;;43.63;38.93;;;1.70;99.90;;;;;;5052463;28;21051;-69
2022/12/05 06:22:14;;;;;;;54.73;37.77;;;1.60;99.90;;;;;;5054147;28;20465;-70
2022/12/05 06:24:41;;;;;;;50.63;38.77;;;1.70;99.90;;;;;;5063563;28;20554;-69
2022/12/05 06:27:08;;;;;;;44.17;38.73;;;1.70;99.90;;;;;;5058615;28;20542;-69
2022/12/05 06:29:35;;;;;;;43.87;39.10;;;1.70;99.90;;;;;;5055878;28;20466;-69
2022/12/05 06:32:03;;;;;;;49.40;39.67;;;1.60;99.90;;;;;;5053102;28;20988;-69
2022/12/05 06:34:32;;;;;;;50.70;40.23;;;1.60;99.90;;;;;;5055289;28;20486;-70
2022/12/05 06:36:59;;;;;;;44.10;38.80;;;1.50;99.90;;;;;;5052254;28;21242;-67
2022/12/05 06:39:26;;;;;;;47.20;39.43;;;1.70;99.90;;;;;;5058001;28;20487;-69
2022/12/05 06:41:53;;;;;;;51.23;39.20;;;1.70;99.90;;;;;;5062368;28;20462;-69
2022/12/05 06:44:21;;;;;;;49.73;40.67;;;1.70;99.90;;;;;;5050913;28;20463;-68
2022/12/05 06:46:49;;;;;;;50.23;39.50;;;1.60;99.90;;;;;;5052809;28;20528;-68
2022/12/05 06:49:17;;;;;;;46.20;39.83;;;1.60;99.90;;;;;;5055380;28;20464;-69
2022/12/05 06:51:44;;;;;;;44.00;39.27;;;1.50;99.90;;;;;;5054712;28;20455;-68
2022/12/05 06:54:12;;;;;;;42.10;37.40;;;1.50;99.90;;;;;;5056697;28;20467;-68
2022/12/05 06:56:39;;;;;;;54.57;40.43;;;1.50;99.90;;;;;;5063591;28;20455;-67
2022/12/05 06:59:06;;;;;;;52.30;40.90;;;1.50;99.90;;;;;;5060177;28;20474;-68
2022/12/05 07:01:37;;;;;;;48.47;38.70;;;1.50;99.90;;;;;;5057006;28;20470;-69
2022/12/05 07:04:06;;;;;;;60.70;42.87;;;1.40;99.90;;;;;;5058172;28;20470;-70
2022/12/05 07:06:35;;;;;;;45.50;36.93;;;1.40;99.90;;;;;;5057711;28;21017;-68
2022/12/05 07:09:04;;;;;;;48.37;37.97;;;1.40;99.90;;;;;;5049304;28;20455;-69
2022/12/05 07:11:31;;;;;;;42.17;36.97;;;1.40;99.90;;;;;;5060339;28;20524;-70
2022/12/05 07:13:58;;;;;;;49.97;39.33;;;1.30;99.90;;;;;;5053468;28;20467;-70
2022/12/05 07:16:24;;;;;;;46.20;37.93;;;1.40;99.90;;;;;;5051717;28;20754;-68
2022/12/05 07:18:51;;;;;;;55.60;38.67;;;1.30;99.90;;;;;;5052885;28;20993;-69
2022/12/05 07:21:20;;;;;;;51.00;39.27;;;1.30;99.90;;;;;;5054183;28;20495;-68
2022/12/05 07:23:49;;;;;;;42.57;37.80;;;1.10;99.90;;;;;;5062025;28;20552;-69
2022/12/05 07:26:18;;;;;;;50.80;34.63;;;1.20;99.90;;;;;;5050667;28;20980;-68
2022/12/05 07:28:46;;;;;;;44.70;38.17;;;1.20;99.90;;;;;;5053086;28;20701;-68
2022/12/05 07:31:15;;;;;;;45.57;37.67;;;1.20;99.90;;;;;;5052532;28;20459;-70
2022/12/05 07:33:42;;;;;;;57.83;39.10;;;1.20;99.90;;;;;;5053303;28;20933;-67
2022/12/05 07:36:11;;;;;;;45.93;37.47;;;1.20;99.90;;;;;;5056080;28;20464;-68
2022/12/05 07:38:56;;;;;;;48.63;38.43;;;1.20;99.90;;;;;;5059349;28;20463;-69
2022/12/05 07:41:24;;;;;;;48.70;38.00;;;1.30;99.90;;;;;;5058601;28;20529;-68
2022/12/05 07:43:52;;;;;;;52.50;39.30;;;1.20;99.90;;;;;;5057334;28;20466;-68
2022/12/05 07:46:20;;;;;;;50.13;39.13;;;1.10;99.90;;;;;;5053188;28;20524;-68
2022/12/05 07:48:48;;;;;;;43.73;37.63;;;1.20;99.90;;;;;;5054913;28;20471;-69
2022/12/05 07:51:15;;;;;;;42.07;37.40;;;1.20;99.90;;;;;;5051251;28;20534;-71
2022/12/05 07:53:43;;;;;;;43.17;36.57;;;1.30;99.90;;;;;;5054699;28;20474;-69
2022/12/05 07:56:15;;;;;;;46.63;38.30;;;1.30;99.90;;;;;;5060789;28;20458;-70
2022/12/05 07:58:43;;;;;;;60.47;36.03;;;1.30;99.90;;;;;;5062238;28;20974;-68
2022/12/05 08:01:12;;;;;;;43.97;37.10;;;1.30;99.90;;;;;;5057812;28;20495;-70
2022/12/05 08:03:39;;;;;;;40.53;35.27;;;1.40;99.90;;;;;;5052567;28;20460;-69
2022/12/05 08:06:07;;;;;;;45.37;38.60;;;1.30;99.90;;;;;;5058065;28;20525;-70
2022/12/05 08:08:34;;;;;;;53.40;36.00;;;1.30;99.90;;;;;;5055288;28;20454;-69
2022/12/05 08:11:03;;;;;;;41.57;37.20;;;1.30;99.90;;;;;;5061650;28;20463;-70
2022/12/05 08:13:32;;;;;;;42.23;36.37;;;1.30;99.90;;;;;;5059009;28;20502;-69
2022/12/05 08:16:02;;;;;;;46.10;38.10;;;1.20;99.90;;;;;;5054626;28;20460;-69
2022/12/05 08:18:29;;;;;;;52.60;40.77;;;1.20;99.90;;;;;;5053884;28;20484;-70
2022/12/05 08:21:00;;;;;;;45.07;39.20;;;1.30;99.90;;;;;;5051579;28;20570;-70
2022/12/05 08:23:33;;;;;;;45.90;36.00;;;1.30;99.90;;;;;;5051223;28;21036;-69
2022/12/05 08:26:02;;;;;;;51.13;36.87;;;1.40;99.90;;;;;;5062190;28;20458;-68
2022/12/05 08:28:29;;;;;;;48.80;36.50;;;1.40;99.90;;;;;;5057456;28;20463;-69
2022/12/05 08:31:03;;;;;;;45.50;35.47;;;1.30;99.90;;;;;;5047399;28;20470;-69
2022/12/05 08:33:30;;;;;;;51.27;36.97;;;1.20;99.90;;;;;;5044561;28;20488;-68
2022/12/05 08:35:57;;;;;;;48.80;38.00;;;1.30;99.90;;;;;;5058186;28;20467;-70
2022/12/05 08:38:24;;;;;;;43.50;37.17;;;1.30;99.90;;;;;;5052769;28;20452;-69
2022/12/05 08:40:51;;;;;;;42.47;35.63;;;1.40;99.90;;;;;;5057224;28;20483;-69
2022/12/05 08:43:18;;;;;;;52.03;37.20;;;1.40;99.90;;;;;;5050753;28;20460;-69
2022/12/05 08:45:50;;;;;;;53.07;37.63;;;1.50;99.90;;;;;;5055715;28;20555;-68
2022/12/05 08:48:19;;;;;;;64.00;37.90;;;1.40;99.90;;;;;;5052757;28;20554;-68
2022/12/05 08:50:46;;;;;;;47.23;38.50;;;1.50;99.90;;;;;;5053462;28;20485;-70
2022/12/05 08:53:14;;;;;;;50.20;37.90;;;1.50;99.90;;;;;;5058555;28;20765;-68
2022/12/05 08:55:41;;;;;;;58.10;38.97;;;1.50;99.90;;;;;;5060094;28;20933;-69
2022/12/05 08:58:08;;;;;;;51.10;39.50;;;1.50;99.90;;;;;;5059022;28;20505;-69
2022/12/05 09:00:35;;;;;;;48.90;40.17;;;1.40;99.90;;;;;;5056727;28;20516;-67
2022/12/05 09:03:02;;;;;;;47.10;38.20;;;1.60;99.90;;;;;;5054202;28;20468;-70
2022/12/05 09:05:31;;;;;;;62.43;38.40;;;1.50;99.90;;;;;;5054445;28;20475;-71
2022/12/05 09:07:59;;;;;;;59.63;40.73;;;1.60;99.90;;;;;;5053639;28;20472;-70
2022/12/05 09:10:26;;;;;;;56.80;39.43;;;1.60;99.90;;;;;;5056058;28;20461;-70
2022/12/05 09:12:53;;;;;;;60.20;41.23;;;1.60;99.90;;;;;;5055624;28;20468;-68
2022/12/05 09:15:19;;;;;;;59.17;40.30;;;1.50;99.90;;;;;;5057006;28;20538;-69
2022/12/05 09:17:46;;;;;;;55.67;40.90;;;1.50;99.90;;;;;;5057967;28;20467;-70
2022/12/05 09:20:14;;;;;;;55.87;40.50;;;1.50;99.90;;;;;;5059873;28;21007;-70
2022/12/05 09:22:42;;;;;;;44.50;39.80;;;1.60;99.90;;;;;;5057297;28;20509;-69
2022/12/05 09:25:09;;;;;;;80.20;43.93;;;1.60;99.90;;;;;;5057182;28;20865;-70
2022/12/05 09:27:36;;;;;;;47.83;40.30;;;1.60;99.90;;;;;;5050815;28;20471;-69
2022/12/05 09:30:04;;;;;;;47.83;40.43;;;1.60;99.90;;;;;;5055430;28;20831;-70
2022/12/05 09:32:30;;;;;;;60.53;40.60;;;1.50;99.90;;;;;;5057427;28;20466;-70
2022/12/05 09:34:58;;;;;;;50.57;39.33;;;1.60;99.90;;;;;;5050160;28;21141;-71
2022/12/05 09:37:25;;;;;;;53.90;40.73;;;1.60;99.90;;;;;;5055927;28;20456;-70
2022/12/05 09:39:53;;;;;;;54.23;40.80;;;1.60;99.90;;;;;;5059449;28;20478;-69
2022/12/05 09:42:38;;;;;;;52.57;39.10;;;1.50;99.90;;;;;;5059322;28;20467;-69
2022/12/05 09:45:28;;;;;;;41.83;37.40;;;1.60;99.90;;;;;;5058435;28;20521;-70
2022/12/05 09:47:59;;;;;;;47.50;37.90;;;1.50;99.90;;;;;;5055149;28;20879;-70
2022/12/05 09:50:28;;;;;;;49.90;37.10;;;1.50;99.90;;;;;;5053811;28;20486;-68
2022/12/05 09:53:04;;;;;;;61.17;39.30;;;1.60;99.90;;;;;;5052197;28;20462;-69
2022/12/05 09:55:39;;;;;;;59.40;38.27;;;1.60;99.90;;;;;;5057232;28;20516;-68
2022/12/05 09:58:27;;;;;;;49.33;37.07;;;1.70;99.90;;;;;;5053620;28;21179;-68
2022/12/05 10:00:59;;;;;;;50.10;39.70;;;1.80;99.90;;;;;;5052608;28;20496;-68
2022/12/05 10:03:32;;;;;;;48.70;39.70;;;1.60;99.90;;;;;;5059287;28;20586;-69
2022/12/05 10:06:11;;;;;;;49.00;38.30;;;1.60;99.90;;;;;;5060651;28;20522;-68
2022/12/05 10:08:51;;;;;;;54.83;41.60;;;1.60;99.90;;;;;;5056015;28;20466;-70
2022/12/05 10:11:27;;;;;;;45.93;39.80;;;1.60;99.90;;;;;;5055054;28;20483;-68
2022/12/05 10:14:05;;;;;;;54.10;38.63;;;1.50;99.90;;;;;;5054231;28;20463;-69
2022/12/05 10:16:38;;;;;;;56.73;39.43;;;1.60;99.90;;;;;;5054705;28;20457;-70
2022/12/05 10:19:11;;;;;;;55.43;39.10;;;1.70;99.90;;;;;;5053037;28;20460;-68
2022/12/05 10:21:44;;;;;;;50.70;40.27;;;1.60;99.90;;;;;;5059483;28;20728;-70
2022/12/05 10:24:15;;;;;;;54.80;38.57;;;1.60;99.90;;;;;;5053830;28;20475;-69
2022/12/05 10:26:46;;;;;;;57.13;38.30;;;1.70;99.90;;;;;;5053864;28;20489;-69
2022/12/05 10:29:23;;;;;;;46.00;38.40;;;1.90;99.90;;;;;;5051371;28;20467;-69
2022/12/05 10:31:57;;;;;;;57.10;39.17;;;2.00;99.90;;;;;;5055635;28;20526;-69
2022/12/05 10:34:30;;;;;;;49.10;38.20;;;2.10;99.90;;;;;;5046296;28;20720;-69
2022/12/05 10:37:02;;;;;;;44.83;38.27;;;2.10;99.90;;;;;;5054256;28;20467;-67
2022/12/05 10:39:29;;;;;;;45.10;36.03;;;2.00;99.90;;;;;;5055321;28;20466;-69
2022/12/05 10:41:59;;;;;;;43.43;37.53;;;2.00;99.90;;;;;;5055410;28;20885;-69
2022/12/05 10:44:26;;;;;;;51.50;38.63;;;1.80;99.90;;;;;;5057134;28;20456;-69
2022/12/05 10:46:53;;;;;;;49.37;37.53;;;2.00;99.90;;;;;;5053305;28;20623;-69
2022/12/05 10:49:21;;;;;;;44.20;33.83;;;2.00;99.90;;;;;;5056649;28;20503;-70
2022/12/05 10:51:49;;;;;;;46.73;36.30;;;2.10;99.90;;;;;;5056299;28;20471;-67
2022/12/05 10:54:20;;;;;;;45.00;35.07;;;2.00;99.90;;;;;;5056347;28;20800;-68
2022/12/05 10:59:47;;;;;;;43.20;35.53;;;1.80;99.90;;;;;;5054617;28;20456;-68
2022/12/05 11:02:23;;;;;;;43.40;37.00;;;1.80;99.90;;;;;;5047558;28;20487;-69
2022/12/05 11:04:50;;;;;;;44.73;38.50;;;1.90;99.90;;;;;;5062789;28;20575;-69
2022/12/05 11:07:28;;;;;;;42.33;35.80;;;1.90;99.90;;;;;;5057405;28;20534;-69
2022/12/05 11:09:56;;;;;;;42.20;34.87;;;2.10;99.90;;;;;;5049548;28;20456;-70
2022/12/05 11:12:24;;;;;;;45.77;37.10;;;2.00;99.90;;;;;;5051295;28;20543;-69
2022/12/05 11:14:59;;;;;;;47.43;33.60;;;2.10;99.90;;;;;;5055300;28;20463;-69
2022/12/05 11:17:31;;;;;;;40.37;34.57;;;2.10;99.90;;;;;;5063408;28;20778;-69
2022/12/05 11:19:58;;;;;;;40.80;34.60;;;2.20;99.90;;;;;;5059380;28;20463;-68
2022/12/05 11:22:32;;;;;;;43.27;34.30;;;2.20;99.90;;;;;;5052727;28;20540;-72
2022/12/05 11:24:58;;;;;;;37.90;34.00;;;2.10;99.90;;;;;;5050667;28;21101;-70
2022/12/05 11:27:28;;;;;;;42.60;32.77;;;2.20;99.90;;;;;;5056415;28;20483;-69
2022/12/05 11:29:59;;;;;;;38.23;34.13;;;2.20;99.90;;;;;;5054021;28;20469;-69
2022/12/05 11:32:29;;;;;;;40.93;34.67;;;2.20;99.90;;;;;;5062880;28;20468;-68
2022/12/05 11:35:06;;;;;;;37.97;33.87;;;2.30;99.90;;;;;;5062026;28;20508;-69
2022/12/05 11:37:40;;;;;;;41.63;34.90;;;2.30;99.90;;;;;;5057807;28;20957;-69
2022/12/05 11:40:16;;;;;;;35.00;31.37;;;2.50;99.90;;;;;;5061160;28;20469;-70
2022/12/05 11:43:00;;;;;;;38.13;33.90;;;2.40;99.90;;;;;;5060042;28;20557;-69
2022/12/05 11:45:52;;;;;;;44.20;35.30;;;2.40;99.90;;;;;;5059843;28;20471;-70
2022/12/05 11:48:40;;;;;;;39.47;33.50;;;2.40;99.90;;;;;;5053800;28;20473;-70
2022/12/05 11:51:22;;;;;;;43.60;34.43;;;2.60;99.90;;;;;;5055089;28;20486;-70
2022/12/05 11:54:09;;;;;;;38.20;34.20;;;2.70;99.90;;;;;;5060865;28;20967;-68
2022/12/05 11:56:39;;;;;;;43.97;35.73;;;2.60;99.90;;;;;;5062953;28;20460;-70
2022/12/05 11:59:34;;;;;;;42.73;35.27;;;2.40;99.90;;;;;;5051989;28;20897;-70
2022/12/05 12:02:13;;;;;;;44.33;35.00;;;2.50;99.90;;;;;;5046745;28;20483;-71
2022/12/05 12:04:58;;;;;;;41.10;36.57;;;2.60;99.90;;;;;;5057709;28;20570;-70
2022/12/05 12:07:37;;;;;;;38.10;34.20;;;2.50;99.90;;;;;;5051929;28;20850;-70
2022/12/05 12:10:14;;;;;;;36.27;32.67;;;2.50;99.90;;;;;;5056276;28;20538;-70
2022/12/05 12:12:52;;;;;;;37.77;33.83;;;2.80;99.90;;;;;;5054718;28;21034;-70
2022/12/05 12:15:50;;;;;;;36.40;32.47;;;2.60;99.90;;;;;;5050034;28;20487;-70
2022/12/05 12:18:37;;;;;;;37.43;33.40;;;2.80;99.90;;;;;;5057943;28;20550;-71
2022/12/05 12:21:15;;;;;;;37.57;31.90;;;2.80;99.90;;;;;;5054924;28;20487;-70
2022/12/05 12:23:54;;;;;;;37.20;33.07;;;2.60;99.90;;;;;;5054480;28;20640;-68
2022/12/05 12:26:30;;;;;;;36.70;33.00;;;2.60;99.90;;;;;;5058066;28;20456;-70
2022/12/05 12:29:08;;;;;;;35.97;32.20;;;2.60;99.90;;;;;;5055310;28;20966;-69
2022/12/05 12:31:51;;;;;;;36.83;33.00;;;2.70;99.90;;;;;;5054410;28;20466;-70
2022/12/05 12:35:01;;;;;;;35.70;32.40;;;2.70;99.90;;;;;;5054291;28;20459;-70
2022/12/05 12:37:38;;;;;;;34.33;31.03;;;2.60;99.90;;;;;;5058928;28;20467;-70
2022/12/05 12:40:13;;;;;;;36.30;32.37;;;2.60;99.90;;;;;;5057059;28;20976;-73
2022/12/05 12:42:50;;;;;;;33.80;30.40;;;2.50;99.90;;;;;;5055989;28;20487;-68
2022/12/05 12:45:44;;;;;;;34.23;31.03;;;2.50;99.90;;;;;;5058471;28;20868;-70
2022/12/05 12:48:25;;;;;;;36.07;32.40;;;2.50;99.90;;;;;;5050529;28;20476;-71
2022/12/05 12:50:55;;;;;;;34.90;31.50;;;2.10;99.90;;;;;;5056732;28;20858;-70
2022/12/05 12:53:38;;;;;;;33.40;30.20;;;2.20;99.90;;;;;;5059876;28;20468;-70
2022/12/05 12:56:17;;;;;;;35.13;31.53;;;2.10;99.90;;;;;;5054708;28;20459;-71
2022/12/05 12:58:54;;;;;;;35.47;31.70;;;2.10;99.90;;;;;;5054242;28;20464;-71
2022/12/05 13:01:30;;;;;;;34.37;31.17;;;2.00;99.90;;;;;;5058276;28;20918;-69
2022/12/05 13:04:03;;;;;;;36.00;32.30;;;1.90;99.90;;;;;;5055116;28;20474;-70